Time;durP1;ratioP1;P1;durP2;ratioP2;P2;SDS_P1;SDS_P2;PMS_P1;PMS_P2;Temp;Humidity;BMP_temperature;BMP_pressure;BME280_temperature;BME280_humidity;BME280_pressure;Samples;Min_cycle;Max_cycle;Signal;HPM_P1;HPM_P2
2022/06/18 00:00:25;;;;;;;5.57;0.65;;;24.40;64.60;;;;;;5061551;28;20028;-87
2022/06/18 00:02:51;;;;;;;;;;;24.50;64.20;;;;;;5060140;28;20069;-87
2022/06/18 00:05:18;;;;;;;0.22;0.22;;;24.50;64.50;;;;;;5052862;28;20250;-88
2022/06/18 00:07:51;;;;;;;0.10;0.10;;;24.50;64.80;;;;;;5056119;28;20513;-88
2022/06/18 00:10:21;;;;;;;0.85;0.22;;;24.50;64.40;;;;;;5049153;28;20024;-87
2022/06/18 00:15:35;;;;;;;0.40;0.30;;;24.30;65.30;;;;;;5052829;28;20063;-87
2022/06/18 00:18:02;;;;;;;0.10;0.10;;;24.30;65.40;;;;;;5047008;28;20029;-88
2022/06/18 00:20:32;;;;;;;0.13;0.13;;;24.10;67.00;;;;;;5047844;28;20046;-88
2022/06/18 00:23:00;;;;;;;0.32;0.20;;;24.10;66.70;;;;;;5048090;28;20033;-88
2022/06/18 00:25:31;;;;;;;1.35;0.75;;;24.10;67.10;;;;;;5049766;28;20137;-89
2022/06/18 00:27:58;;;;;;;0.30;0.22;;;23.90;68.00;;;;;;5054026;28;20032;-88
2022/06/18 00:30:27;;;;;;;0.00;0.00;;;23.90;67.70;;;;;;5055098;28;20028;-88
2022/06/18 00:32:53;;;;;;;1.00;0.60;;;23.90;67.40;;;;;;5055855;28;20528;-88
2022/06/18 00:35:19;;;;;;;2.10;0.45;;;23.90;68.00;;;;;;5052394;28;20044;-88
2022/06/18 00:37:46;;;;;;;2.80;0.47;;;23.90;68.70;;;;;;5055368;28;20029;-87
2022/06/18 00:40:26;;;;;;;0.43;0.30;;;23.80;68.70;;;;;;5048917;28;20035;-88
2022/06/18 00:42:52;;;;;;;1.13;0.43;;;23.60;69.40;;;;;;5054682;28;20071;-88
2022/06/18 00:45:23;;;;;;;0.00;0.00;;;23.50;71.10;;;;;;5054829;28;20588;-88
2022/06/18 00:48:07;;;;;;;0.43;0.30;;;23.50;70.40;;;;;;5056442;28;20036;-87
2022/06/18 00:50:49;;;;;;;1.17;0.65;;;23.40;70.80;;;;;;5051424;28;20532;-87
2022/06/18 00:53:20;;;;;;;0.13;0.13;;;23.30;71.40;;;;;;5048459;28;20135;-86
2022/06/18 00:55:56;;;;;;;0.63;0.40;;;23.20;71.70;;;;;;5048008;28;20497;-88
2022/06/18 00:58:38;;;;;;;0.10;0.10;;;23.20;71.70;;;;;;5047930;28;20033;-88
2022/06/18 01:01:12;;;;;;;0.30;0.30;;;23.10;72.80;;;;;;5052916;28;20054;-88
2022/06/18 01:03:38;;;;;;;0.35;0.35;;;23.00;73.60;;;;;;5055882;28;20101;-88
2022/06/18 01:06:32;;;;;;;0.30;0.30;;;23.00;73.40;;;;;;5048969;28;20040;-88
2022/06/18 01:09:06;;;;;;;0.10;0.10;;;23.00;73.40;;;;;;5055127;28;20067;-87
2022/06/18 01:11:35;;;;;;;0.82;0.38;;;23.00;73.00;;;;;;5045278;28;20031;-87
2022/06/18 01:14:05;;;;;;;0.20;0.20;;;23.00;72.50;;;;;;5049860;28;20670;-89
2022/06/18 01:16:33;;;;;;;0.20;0.20;;;22.80;73.90;;;;;;5056195;28;20109;-89
2022/06/18 01:18:59;;;;;;;0.40;0.30;;;22.80;74.40;;;;;;5052019;28;20028;-88
2022/06/18 01:22:01;;;;;;;0.13;0.13;;;22.80;74.10;;;;;;5047506;28;20039;-87
2022/06/18 01:24:36;;;;;;;2.28;1.38;;;22.70;75.00;;;;;;5048296;28;20045;-88
2022/06/18 01:27:02;;;;;;;0.50;0.47;;;22.60;75.40;;;;;;5054061;28;20040;-87
2022/06/18 01:29:28;;;;;;;0.30;0.30;;;22.60;75.40;;;;;;5052889;28;20029;-88
2022/06/18 01:31:55;;;;;;;3.43;1.20;;;22.50;75.80;;;;;;5071261;28;20037;-88
2022/06/18 01:34:21;;;;;;;0.00;0.00;;;22.60;75.40;;;;;;5056706;28;20409;-89
2022/06/18 01:36:47;;;;;;;0.00;0.00;;;22.50;75.30;;;;;;5055323;28;20036;-89
2022/06/18 01:39:18;;;;;;;1.27;0.60;;;22.40;76.00;;;;;;5055799;28;20577;-88
2022/06/18 01:41:51;;;;;;;4.38;1.58;;;22.50;75.60;;;;;;5057306;28;20070;-88
2022/06/18 01:44:19;;;;;;;0.10;0.10;;;22.30;76.80;;;;;;5061046;28;20054;-88
2022/06/18 01:46:48;;;;;;;0.20;0.20;;;22.30;76.60;;;;;;5051666;28;20036;-87
2022/06/18 01:49:19;;;;;;;0.60;0.60;;;22.30;77.00;;;;;;5050433;28;20040;-87
2022/06/18 01:51:48;;;;;;;0.60;0.45;;;22.20;76.90;;;;;;5051674;28;20158;-87
2022/06/18 01:54:21;;;;;;;0.35;0.10;;;22.30;76.40;;;;;;5051199;28;20056;-85
2022/06/18 01:56:54;;;;;;;0.00;0.00;;;22.30;76.40;;;;;;5061910;28;20120;-86
2022/06/18 01:59:29;;;;;;;0.20;0.20;;;22.10;77.20;;;;;;5058985;28;20793;-87
2022/06/18 02:01:56;;;;;;;0.10;0.10;;;22.00;78.50;;;;;;5051352;28;20024;-85
2022/06/18 02:04:24;;;;;;;0.30;0.30;;;22.00;78.90;;;;;;5059216;28;20516;-87
2022/06/18 02:06:52;;;;;;;0.10;0.10;;;22.00;78.30;;;;;;5055327;28;20555;-87
2022/06/18 02:09:52;;;;;;;0.35;0.30;;;22.10;77.10;;;;;;5057282;28;20091;-87
2022/06/18 02:12:21;;;;;;;0.00;0.00;;;22.10;76.60;;;;;;5057530;28;20032;-86
2022/06/18 02:14:52;;;;;;;0.20;0.20;;;22.00;77.40;;;;;;5050954;28;20067;-87
2022/06/18 02:17:19;;;;;;;0.00;0.00;;;21.90;78.00;;;;;;5058536;28;20426;-87
2022/06/18 02:20:01;;;;;;;0.45;0.43;;;21.80;79.90;;;;;;5056875;28;20031;-86
2022/06/18 02:22:36;;;;;;;0.45;0.43;;;21.60;80.70;;;;;;5053432;28;20040;-87
2022/06/18 02:25:01;;;;;;;0.30;0.30;;;21.70;80.80;;;;;;5049799;28;20031;-86
2022/06/18 02:27:28;;;;;;;0.53;0.47;;;21.60;80.70;;;;;;5054753;28;20028;-86
2022/06/18 02:29:54;;;;;;;0.47;0.47;;;21.60;80.80;;;;;;5058283;28;20044;-87
2022/06/18 02:32:45;;;;;;;0.13;0.13;;;21.50;81.20;;;;;;5059602;28;20941;-87
2022/06/18 02:35:13;;;;;;;0.57;0.52;;;21.30;83.20;;;;;;5057181;28;20028;-87
2022/06/18 02:37:40;;;;;;;0.35;0.30;;;21.30;82.90;;;;;;5056399;28;20032;-87
2022/06/18 02:40:19;;;;;;;0.10;0.08;;;21.20;83.30;;;;;;5056921;28;20133;-86
2022/06/18 02:42:47;;;;;;;0.45;0.45;;;21.30;82.60;;;;;;5056520;28;20147;-86
2022/06/18 02:45:13;;;;;;;0.32;0.30;;;21.40;81.50;;;;;;5051785;28;20036;-86
2022/06/18 02:47:39;;;;;;;0.08;0.08;;;21.40;81.30;;;;;;5051169;28;20118;-87
2022/06/18 02:50:09;;;;;;;0.15;0.10;;;21.40;81.30;;;;;;5054978;28;20107;-86
2022/06/18 02:52:48;;;;;;;0.22;0.22;;;21.40;80.90;;;;;;5055025;28;20072;-87
2022/06/18 02:55:22;;;;;;;0.00;0.00;;;21.30;81.10;;;;;;5051151;28;20033;-86
2022/06/18 02:57:52;;;;;;;2.08;1.00;;;21.30;81.40;;;;;;5058086;28;20020;-86
2022/06/18 03:00:18;;;;;;;0.30;0.30;;;21.30;80.70;;;;;;5056358;28;20043;-87
2022/06/18 03:02:44;;;;;;;0.17;0.17;;;21.30;81.00;;;;;;5057984;28;20039;-87
2022/06/18 03:05:19;;;;;;;0.87;0.73;;;21.30;81.00;;;;;;5055796;28;20046;-86
2022/06/18 03:07:45;;;;;;;0.13;0.13;;;21.20;81.40;;;;;;5053535;28;20623;-86
2022/06/18 03:13:04;;;;;;;0.75;0.60;;;21.00;82.10;;;;;;5014984;28;20076;-86
2022/06/18 03:15:32;;;;;;;;;;;21.00;82.40;;;;;;4996132;28;20038;-86
2022/06/18 03:17:59;;;;;;;0.10;0.10;;;21.10;82.40;;;;;;5018067;28;20293;-87
2022/06/18 03:20:34;;;;;;;0.10;0.10;;;21.00;82.70;;;;;;5012941;28;20521;-86
2022/06/18 03:23:00;;;;;;;0.38;0.38;;;21.00;83.10;;;;;;4999085;28;20789;-86
2022/06/18 03:25:25;;;;;;;1.17;0.57;;;20.90;83.70;;;;;;5017034;28;20045;-86
2022/06/18 03:27:51;;;;;;;0.10;0.10;;;20.80;84.70;;;;;;5018678;28;20041;-85
2022/06/18 03:30:18;;;;;;;0.20;0.20;;;20.60;85.70;;;;;;4999773;28;20033;-87
2022/06/18 03:32:43;;;;;;;0.10;0.10;;;20.60;86.80;;;;;;5011141;28;20033;-87
2022/06/18 03:35:09;;;;;;;0.10;0.10;;;20.60;86.80;;;;;;5011455;28;20508;-87
2022/06/18 03:37:34;;;;;;;0.83;0.40;;;20.60;86.70;;;;;;5011033;28;20049;-86
2022/06/18 03:40:00;;;;;;;0.27;0.20;;;20.60;86.60;;;;;;4999696;28;20037;-86
2022/06/18 03:42:26;;;;;;;2.00;1.00;;;20.60;86.30;;;;;;5015505;28;20037;-86
2022/06/18 03:44:51;;;;;;;0.10;0.10;;;20.60;86.60;;;;;;5013316;28;20083;-86
2022/06/18 03:47:17;;;;;;;0.23;0.10;;;20.60;86.70;;;;;;5023274;28;20037;-86
2022/06/18 03:49:43;;;;;;;0.30;0.30;;;20.50;87.00;;;;;;5032159;28;20072;-85
2022/06/18 03:52:10;;;;;;;0.20;0.20;;;20.50;86.90;;;;;;5055734;28;20460;-86
2022/06/18 03:54:36;;;;;;;0.20;0.20;;;20.40;87.60;;;;;;5055290;28;20078;-87
2022/06/18 03:57:02;;;;;;;0.43;0.43;;;20.40;87.60;;;;;;5055927;28;20033;-87
2022/06/18 03:59:28;;;;;;;1.43;0.77;;;20.40;87.60;;;;;;5056576;28;20037;-87
2022/06/18 04:01:53;;;;;;;0.00;0.00;;;20.30;88.80;;;;;;5056040;28;20033;-86
2022/06/18 04:04:19;;;;;;;0.20;0.17;;;20.20;89.20;;;;;;5053180;28;20425;-87
2022/06/18 04:06:45;;;;;;;0.20;0.20;;;20.20;90.00;;;;;;5056961;28;20113;-87
2022/06/18 04:09:11;;;;;;;0.13;0.13;;;20.10;90.00;;;;;;5048063;28;20155;-87
2022/06/18 04:11:37;;;;;;;0.53;0.53;;;20.10;90.00;;;;;;5052349;28;20574;-88
2022/06/18 04:14:04;;;;;;;0.30;0.27;;;20.10;90.10;;;;;;5053504;28;20604;-88
2022/06/18 04:16:30;;;;;;;0.25;0.10;;;20.10;90.20;;;;;;5053265;28;20020;-83
2022/06/18 04:18:55;;;;;;;0.08;0.08;;;20.10;90.40;;;;;;5054008;28;20077;-84
2022/06/18 04:21:21;;;;;;;0.00;0.00;;;20.10;90.60;;;;;;5054876;28;20036;-84
2022/06/18 04:23:47;;;;;;;0.63;0.60;;;20.10;90.60;;;;;;5056168;28;20132;-83
2022/06/18 04:26:13;;;;;;;0.20;0.20;;;20.10;90.80;;;;;;5055887;28;20039;-83
2022/06/18 04:28:39;;;;;;;2.60;1.07;;;20.20;90.20;;;;;;5051070;28;20020;-84
2022/06/18 04:31:06;;;;;;;0.25;0.25;;;20.20;90.80;;;;;;5050926;28;20290;-84
2022/06/18 04:33:32;;;;;;;0.52;0.40;;;20.20;90.30;;;;;;5054912;28;23625;-83
2022/06/18 04:35:58;;;;;;;0.20;0.20;;;20.30;90.50;;;;;;5053536;28;20039;-83
2022/06/18 04:38:25;;;;;;;0.20;0.20;;;20.20;91.00;;;;;;5052705;28;20086;-82
2022/06/18 04:40:51;;;;;;;0.22;0.22;;;20.30;90.50;;;;;;5055925;28;20060;-83
2022/06/18 04:43:17;;;;;;;0.45;0.45;;;20.50;89.70;;;;;;5049814;28;20036;-82
2022/06/18 04:45:44;;;;;;;0.20;0.20;;;20.50;90.40;;;;;;5055540;28;20040;-83
2022/06/18 04:48:10;;;;;;;;;;;20.60;90.00;;;;;;5056088;28;20395;-82
2022/06/18 04:50:39;;;;;;;0.50;0.50;;;20.50;90.20;;;;;;5056745;28;19917;-84
2022/06/18 04:53:08;;;;;;;0.10;0.10;;;20.70;89.20;;;;;;5059011;28;20044;-84
2022/06/18 04:55:34;;;;;;;12.95;0.55;;;20.30;90.30;;;;;;5058660;28;20861;-84
2022/06/18 04:58:00;;;;;;;0.00;0.00;;;20.20;90.90;;;;;;5058733;28;20482;-84
2022/06/18 05:00:26;;;;;;;1.45;0.80;;;20.10;91.40;;;;;;5060173;28;20036;-84
2022/06/18 05:02:52;;;;;;;1.13;1.03;;;20.10;91.50;;;;;;5062233;28;20060;-83
2022/06/18 05:05:23;;;;;;;0.17;0.17;;;20.20;91.50;;;;;;5060014;28;20279;-82
2022/06/18 05:07:49;;;;;;;0.10;0.10;;;20.30;91.30;;;;;;5059680;28;20020;-83
2022/06/18 05:10:15;;;;;;;0.13;0.13;;;20.50;90.50;;;;;;5060628;28;20847;-84
2022/06/18 05:12:41;;;;;;;0.10;0.10;;;20.60;90.00;;;;;;5058531;28;20287;-83
2022/06/18 05:15:09;;;;;;;0.40;0.40;;;20.80;89.20;;;;;;5059879;28;20290;-83
2022/06/18 05:17:39;;;;;;;0.00;0.00;;;21.30;86.30;;;;;;5059807;28;20029;-84
2022/06/18 05:20:05;;;;;;;0.65;0.35;;;21.80;84.20;;;;;;5057548;28;20032;-83
2022/06/18 05:22:31;;;;;;;;;;;22.40;80.20;;;;;;5059842;28;20574;-83
2022/06/18 05:24:57;;;;;;;0.17;0.17;;;22.60;81.90;;;;;;5060892;28;19912;-83
2022/06/18 05:27:28;;;;;;;0.52;0.52;;;22.70;79.80;;;;;;5062368;28;20063;-83
2022/06/18 05:29:55;;;;;;;0.95;0.45;;;23.00;79.70;;;;;;5066330;28;20028;-87
2022/06/18 05:32:20;;;;;;;;;;;24.00;73.20;;;;;;5064442;28;20036;-87
2022/06/18 05:34:46;;;;;;;2.63;0.35;;;24.40;70.60;;;;;;5059708;28;19962;-85
2022/06/18 05:37:20;;;;;;;0.20;0.20;;;24.90;70.20;;;;;;5062373;28;20525;-88
2022/06/18 05:39:46;;;;;;;0.82;0.82;;;25.10;68.30;;;;;;5062250;28;20733;-88
2022/06/18 05:42:12;;;;;;;0.00;0.00;;;25.60;66.00;;;;;;5064414;28;20131;-89
2022/06/18 05:44:38;;;;;;;1.63;0.50;;;25.70;64.90;;;;;;5061217;28;20043;-88
2022/06/18 05:47:15;;;;;;;0.30;0.27;;;26.10;63.60;;;;;;5062416;28;20301;-89
2022/06/18 05:49:41;;;;;;;0.10;0.10;;;26.30;64.00;;;;;;5062305;28;20361;-89
2022/06/18 05:52:08;;;;;;;0.25;0.25;;;26.80;61.80;;;;;;5052155;28;20090;-87
2022/06/18 05:54:34;;;;;;;0.43;0.40;;;27.10;59.40;;;;;;5060834;28;20123;-88
2022/06/18 05:57:00;;;;;;;0.00;0.00;;;27.00;58.60;;;;;;5064995;28;20528;-87
2022/06/18 05:59:26;;;;;;;0.10;0.10;;;27.70;57.00;;;;;;5059238;28;20028;-87
2022/06/18 06:01:56;;;;;;;0.05;0.05;;;27.80;57.00;;;;;;5058062;28;20934;-87
2022/06/18 06:04:22;;;;;;;2.55;1.08;;;27.80;60.30;;;;;;5061078;28;20049;-88
2022/06/18 06:06:48;;;;;;;1.20;0.75;;;27.90;55.90;;;;;;5061883;28;20045;-89
2022/06/18 06:11:28;;;;;;;0.20;0.20;;;28.40;55.00;;;;;;5063762;28;20036;-88
2022/06/18 06:12:00;;;;;;;0.32;0.20;;;28.80;54.80;;;;;;5061149;28;20695;-88
2022/06/18 06:14:26;;;;;;;0.05;0.05;;;29.00;54.10;;;;;;5061516;28;20047;-86
2022/06/18 06:16:51;;;;;;;18.17;1.98;;;29.30;53.30;;;;;;5060922;28;20083;-83
2022/06/18 06:19:17;;;;;;;0.10;0.10;;;29.40;53.70;;;;;;5058723;28;20032;-82
2022/06/18 06:21:42;;;;;;;0.75;0.47;;;29.20;53.30;;;;;;5061736;28;20036;-83
2022/06/18 06:24:08;;;;;;;0.20;0.10;;;29.50;53.00;;;;;;5061688;28;20069;-83
2022/06/18 06:26:35;;;;;;;;;;;29.80;52.10;;;;;;5065211;28;20040;-83
2022/06/18 06:29:01;;;;;;;0.22;0.22;;;30.20;52.10;;;;;;5061490;28;20015;-84
2022/06/18 06:31:26;;;;;;;;;;;30.40;51.60;;;;;;5064078;28;20551;-84
2022/06/18 06:33:52;;;;;;;0.10;0.10;;;30.40;51.00;;;;;;5061549;28;19916;-84
2022/06/18 06:36:18;;;;;;;;;;;30.80;50.10;;;;;;5063388;28;20066;-83
2022/06/18 06:38:43;;;;;;;0.08;0.08;;;31.30;50.40;;;;;;5062247;28;20010;-83
2022/06/18 06:41:15;;;;;;;;;;;31.10;48.60;;;;;;5061383;28;20021;-83
2022/06/18 06:43:40;;;;;;;0.38;0.32;;;31.50;47.90;;;;;;5063025;28;20381;-83
2022/06/18 06:46:06;;;;;;;;;;;31.50;51.10;;;;;;5062363;28;20039;-83
2022/06/18 06:48:31;;;;;;;0.10;0.10;;;31.90;48.70;;;;;;5061195;28;19987;-84
2022/06/18 06:50:57;;;;;;;;;;;32.10;48.70;;;;;;5065565;28;20017;-83
2022/06/18 06:53:23;;;;;;;0.20;0.20;;;32.10;48.70;;;;;;5061248;28;19924;-83
2022/06/18 06:58:33;;;;;;;0.05;0.05;;;32.20;47.10;;;;;;5061328;28;20412;-83
2022/06/18 07:00:59;;;;;;;0.00;0.00;;;33.50;46.90;;;;;;5061718;28;20032;-84
2022/06/18 07:03:28;;;;;;;1.38;0.98;;;33.30;47.00;;;;;;5054085;28;20045;-84
2022/06/18 07:05:56;;;;;;;0.47;0.38;;;32.60;47.50;;;;;;5054761;28;20036;-83
2022/06/18 07:08:22;;;;;;;6.45;0.55;;;33.90;47.00;;;;;;5060848;28;20028;-84
2022/06/18 07:10:49;;;;;;;1.20;0.60;;;33.60;45.70;;;;;;5050174;28;20531;-84
2022/06/18 07:13:15;;;;;;;1.20;0.82;;;33.70;45.90;;;;;;5046789;28;20017;-84
2022/06/18 07:15:41;;;;;;;0.55;0.52;;;34.10;46.70;;;;;;5050635;28;20056;-83
2022/06/18 07:18:15;;;;;;;0.10;0.10;;;34.40;44.70;;;;;;5046527;28;20029;-84
2022/06/18 07:20:40;;;;;;;1.38;0.45;;;34.40;44.70;;;;;;5049352;28;20048;-83
2022/06/18 07:23:07;;;;;;;0.20;0.20;;;34.60;46.00;;;;;;5047616;28;20174;-83
2022/06/18 07:25:32;;;;;;;0.30;0.30;;;34.80;44.50;;;;;;5045386;28;20035;-83
2022/06/18 07:27:58;;;;;;;0.50;0.47;;;35.00;43.80;;;;;;5045451;28;20032;-84
2022/06/18 07:30:24;;;;;;;0.40;0.35;;;34.80;43.80;;;;;;5048934;28;20024;-85
2022/06/18 07:32:50;;;;;;;0.10;0.10;;;35.40;43.10;;;;;;5046911;28;20029;-83
2022/06/18 07:35:34;;;;;;;0.20;0.20;;;35.90;44.40;;;;;;5047872;28;20055;-83
2022/06/18 07:38:00;;;;;;;;;;;35.60;43.90;;;;;;5050155;28;20033;-83
2022/06/18 07:40:30;;;;;;;0.28;0.28;;;35.80;43.30;;;;;;5048438;28;20025;-82
2022/06/18 07:42:56;;;;;;;0.20;0.13;;;36.40;42.00;;;;;;5051358;28;20029;-82
2022/06/18 07:45:25;;;;;;;0.20;0.20;;;37.10;42.00;;;;;;5056882;28;20032;-83
2022/06/18 07:47:52;;;;;;;0.22;0.20;;;37.10;41.80;;;;;;5057606;28;20086;-84
2022/06/18 07:50:19;;;;;;;0.38;0.38;;;37.20;42.00;;;;;;5056516;28;20055;-84
2022/06/18 07:52:45;;;;;;;0.10;0.10;;;36.80;43.00;;;;;;5059093;28;20076;-84
2022/06/18 07:55:17;;;;;;;0.40;0.40;;;36.90;42.60;;;;;;5057401;28;20505;-84
2022/06/18 07:57:43;;;;;;;0.17;0.08;;;37.40;41.80;;;;;;5058548;28;20040;-84
2022/06/18 08:00:11;;;;;;;0.60;0.50;;;38.10;41.60;;;;;;5053053;28;20047;-83
2022/06/18 08:02:39;;;;;;;0.32;0.10;;;38.60;42.10;;;;;;5058257;28;20079;-83
2022/06/18 08:05:06;;;;;;;0.10;0.08;;;38.60;42.10;;;;;;5056174;28;21104;-84
2022/06/18 08:07:32;;;;;;;0.45;0.43;;;39.40;41.20;;;;;;5054616;28;20142;-84
2022/06/18 08:09:57;;;;;;;0.73;0.35;;;39.70;40.20;;;;;;5055959;28;20403;-83
2022/06/18 08:12:23;;;;;;;0.50;0.20;;;38.90;39.90;;;;;;5053332;28;20043;-84
2022/06/18 08:14:49;;;;;;;0.03;0.03;;;39.10;40.50;;;;;;5049361;28;20028;-84
2022/06/18 08:17:14;;;;;;;0.35;0.28;;;39.20;39.90;;;;;;5053836;28;20043;-84
2022/06/18 08:19:40;;;;;;;0.65;0.43;;;39.40;40.30;;;;;;5051554;28;20021;-84
2022/06/18 08:22:06;;;;;;;0.10;0.10;;;39.70;41.30;;;;;;5055111;28;20032;-84
2022/06/18 08:24:31;;;;;;;0.25;0.22;;;40.10;40.10;;;;;;5050111;28;20123;-86
2022/06/18 08:26:58;;;;;;;0.77;0.38;;;39.50;39.40;;;;;;5059294;28;20602;-87
2022/06/18 08:29:24;;;;;;;0.17;0.17;;;40.40;40.90;;;;;;5059227;28;20094;-84
2022/06/18 08:31:51;;;;;;;0.22;0.13;;;40.60;39.10;;;;;;5053788;28;20112;-84
2022/06/18 08:34:16;;;;;;;0.00;0.00;;;41.30;38.40;;;;;;5053303;28;20060;-84
2022/06/18 08:36:43;;;;;;;0.00;0.00;;;41.90;39.40;;;;;;5048642;28;20052;-85
2022/06/18 08:39:09;;;;;;;0.47;0.30;;;41.50;37.40;;;;;;5050227;28;20033;-85
2022/06/18 08:41:53;;;;;;;0.20;0.17;;;41.40;36.60;;;;;;5053749;28;20028;-85
2022/06/18 08:44:28;;;;;;;;;;;41.80;37.60;;;;;;5054224;28;20033;-85
2022/06/18 08:47:13;;;;;;;0.65;0.65;;;42.10;38.60;;;;;;5053685;28;19912;-85
2022/06/18 08:49:57;;;;;;;0.45;0.35;;;42.90;38.00;;;;;;5057397;28;20036;-85
2022/06/18 08:52:42;;;;;;;1.85;0.65;;;42.90;35.60;;;;;;5055693;28;20036;-84
2022/06/18 08:55:08;;;;;;;0.10;0.10;;;42.80;35.40;;;;;;5057294;28;20039;-84
2022/06/18 08:57:36;;;;;;;0.22;0.22;;;43.50;37.90;;;;;;5045543;28;20029;-85
2022/06/18 09:00:10;;;;;;;0.28;0.15;;;43.20;37.90;;;;;;5045403;28;20128;-85
2022/06/18 09:02:45;;;;;;;0.00;0.00;;;43.70;38.20;;;;;;5048610;28;20033;-81
2022/06/18 09:05:31;;;;;;;0.30;0.30;;;43.70;41.20;;;;;;5049600;28;20047;-81
2022/06/18 09:08:06;;;;;;;0.35;0.30;;;43.30;35.80;;;;;;5061578;28;20067;-82
2022/06/18 09:10:35;;;;;;;;;;;44.10;37.70;;;;;;5055821;28;20028;-82
2022/06/18 09:13:07;;;;;;;0.05;0.03;;;44.40;39.10;;;;;;5049679;28;19940;-79
2022/06/18 09:15:41;;;;;;;0.10;0.10;;;43.80;37.10;;;;;;5052900;28;20028;-80
2022/06/18 09:18:15;;;;;;;0.00;0.00;;;44.60;38.00;;;;;;5050473;28;20021;-79
2022/06/18 09:20:43;;;;;;;0.35;0.35;;;44.30;37.00;;;;;;5050662;28;20025;-78
2022/06/18 09:23:35;;;;;;;0.10;0.10;;;43.90;35.70;;;;;;5050512;28;20044;-80
2022/06/18 09:26:03;;;;;;;2.10;0.30;;;44.60;37.30;;;;;;5056342;28;20128;-79
2022/06/18 09:28:38;;;;;;;0.70;0.20;;;44.10;36.50;;;;;;5062691;28;20035;-79
2022/06/18 09:31:10;;;;;;;0.00;0.00;;;44.30;35.70;;;;;;5062730;28;20024;-79
2022/06/18 09:33:57;;;;;;;0.75;0.43;;;43.80;36.40;;;;;;5057855;28;20099;-78
2022/06/18 09:36:32;;;;;;;0.65;0.65;;;44.50;35.10;;;;;;5058734;28;20623;-79
2022/06/18 09:39:11;;;;;;;0.05;0.05;;;43.70;35.20;;;;;;5061913;28;20066;-79
2022/06/18 09:41:54;;;;;;;1.08;0.65;;;44.50;36.70;;;;;;5065615;28;20112;-79
2022/06/18 09:44:55;;;;;;;1.13;1.02;;;44.40;36.30;;;;;;5061920;28;20039;-78
2022/06/18 09:47:35;;;;;;;0.10;0.10;;;45.00;36.10;;;;;;5051698;28;20032;-78
2022/06/18 09:50:02;;;;;;;1.83;0.95;;;45.00;37.70;;;;;;5052262;28;20458;-79
2022/06/18 09:52:34;;;;;;;0.88;0.60;;;45.90;37.20;;;;;;5057864;28;20036;-78
2022/06/18 09:55:23;;;;;;;0.98;0.50;;;45.50;32.20;;;;;;5054473;28;20036;-79
2022/06/18 09:57:53;;;;;;;0.10;0.10;;;45.30;36.90;;;;;;5057824;28;20107;-78
2022/06/18 10:00:28;;;;;;;0.43;0.32;;;44.90;34.50;;;;;;5061404;28;20052;-77
2022/06/18 10:03:01;;;;;;;0.52;0.52;;;44.60;34.20;;;;;;5064021;28;20048;-77
2022/06/18 10:08:19;;;;;;;0.20;0.20;;;44.60;32.00;;;;;;5060850;28;20050;-76
2022/06/18 10:10:55;;;;;;;0.30;0.30;;;43.60;32.70;;;;;;5060666;28;20613;-76
2022/06/18 10:13:27;;;;;;;2.30;0.65;;;44.30;32.10;;;;;;5054106;28;20063;-77
2022/06/18 10:16:02;;;;;;;0.65;0.57;;;45.20;32.50;;;;;;5062054;28;20032;-77
2022/06/18 10:19:23;;;;;;;0.40;0.30;;;44.70;31.60;;;;;;5061916;28;20035;-77
2022/06/18 10:22:01;;;;;;;0.57;0.57;;;43.40;32.20;;;;;;4980282;28;20125;-77
2022/06/18 10:24:40;;;;;;;0.85;0.73;;;43.20;34.70;;;;;;4983498;28;20535;-77
2022/06/18 10:27:22;;;;;;;0.38;0.38;;;43.70;32.20;;;;;;4984738;28;20081;-77
2022/06/18 10:30:08;;;;;;;2.78;0.63;;;44.60;32.70;;;;;;4981396;28;20033;-77
2022/06/18 10:32:44;;;;;;;0.30;0.30;;;43.90;32.90;;;;;;4986235;28;20897;-77
2022/06/18 10:35:29;;;;;;;5.35;1.30;;;44.60;31.80;;;;;;4969460;28;20093;-77
2022/06/18 10:38:26;;;;;;;1.13;0.93;;;42.60;34.00;;;;;;4982396;28;21077;-77
2022/06/18 10:41:06;;;;;;;3.20;1.30;;;41.70;32.50;;;;;;4975587;28;20140;-78
2022/06/18 10:44:09;;;;;;;0.30;0.25;;;40.80;32.70;;;;;;4984525;28;20085;-76
2022/06/18 10:46:35;;;;;;;0.50;0.50;;;40.10;32.80;;;;;;4983152;28;20444;-82
2022/06/18 10:49:04;;;;;;;2.42;0.95;;;38.90;35.10;;;;;;4982896;28;20037;-81
2022/06/18 10:51:46;;;;;;;2.20;1.50;;;38.90;37.60;;;;;;4981395;28;20526;-82
2022/06/18 10:54:13;;;;;;;0.45;0.45;;;38.30;32.40;;;;;;4985251;28;20058;-82
2022/06/18 10:56:56;;;;;;;0.55;0.55;;;38.10;33.30;;;;;;5012633;28;20097;-80
2022/06/18 10:59:36;;;;;;;0.35;0.35;;;37.80;34.20;;;;;;5059864;28;20135;-83
2022/06/18 11:02:17;;;;;;;2.60;1.00;;;37.80;32.90;;;;;;5059929;28;20049;-82
2022/06/18 11:04:55;;;;;;;0.68;0.68;;;37.50;35.40;;;;;;5060865;28;20044;-82
2022/06/18 11:07:27;;;;;;;13.32;1.20;;;37.60;34.70;;;;;;5049419;28;20857;-82
2022/06/18 11:09:57;;;;;;;0.25;0.15;;;37.30;33.60;;;;;;5053024;28;20045;-81
2022/06/18 11:12:32;;;;;;;1.33;0.30;;;36.90;33.90;;;;;;5061827;28;20032;-82
2022/06/18 11:14:59;;;;;;;0.30;0.30;;;36.70;34.90;;;;;;5059424;28;20080;-82
2022/06/18 11:17:25;;;;;;;4.03;1.35;;;36.60;35.30;;;;;;5060101;28;20497;-82
2022/06/18 11:19:50;;;;;;;2.17;1.10;;;36.70;37.20;;;;;;5059624;28;20044;-81
2022/06/18 11:22:28;;;;;;;2.65;1.30;;;36.60;34.70;;;;;;5060828;28;20274;-83
2022/06/18 11:25:03;;;;;;;0.45;0.45;;;36.70;37.50;;;;;;5060051;28;20492;-82
2022/06/18 11:27:38;;;;;;;0.82;0.55;;;36.40;34.70;;;;;;5060285;28;20670;-82
2022/06/18 11:30:18;;;;;;;0.98;0.77;;;36.20;35.50;;;;;;5059705;28;20543;-81
2022/06/18 11:32:47;;;;;;;0.63;0.63;;;36.20;36.20;;;;;;5061887;28;20060;-84
2022/06/18 11:35:13;;;;;;;0.85;0.55;;;36.20;36.70;;;;;;5056636;28;20486;-83
2022/06/18 11:37:40;;;;;;;1.20;0.73;;;36.10;37.20;;;;;;5058594;28;20035;-82
2022/06/18 11:40:06;;;;;;;0.75;0.68;;;35.90;37.90;;;;;;5060580;28;20754;-83
2022/06/18 11:42:49;;;;;;;0.88;0.60;;;36.00;37.60;;;;;;5059250;28;20139;-84
2022/06/18 11:45:36;;;;;;;2.65;1.50;;;35.80;36.90;;;;;;5059206;28;20039;-82
2022/06/18 11:48:40;;;;;;;0.00;0.00;;;35.70;37.00;;;;;;5048706;28;20025;-83
2022/06/18 11:51:09;;;;;;;1.98;1.08;;;35.70;37.50;;;;;;5051713;28;20028;-82
2022/06/18 11:53:45;;;;;;;8.77;0.85;;;35.60;37.30;;;;;;5050625;28;20044;-83
2022/06/18 11:56:20;;;;;;;1.15;1.05;;;35.60;37.50;;;;;;5049423;28;20531;-82
2022/06/18 11:58:52;;;;;;;0.50;0.50;;;35.50;37.40;;;;;;5048341;28;20029;-82
2022/06/18 12:01:35;;;;;;;0.55;0.55;;;35.60;37.40;;;;;;5045625;28;20033;-83
2022/06/18 12:04:12;;;;;;;13.30;2.83;;;35.70;38.20;;;;;;5059422;28;20039;-82
2022/06/18 12:06:52;;;;;;;1.08;0.75;;;35.50;37.30;;;;;;5059006;28;20040;-84
2022/06/18 12:09:18;;;;;;;0.45;0.45;;;35.60;38.00;;;;;;5061179;28;20127;-83
2022/06/18 12:11:52;;;;;;;3.05;1.17;;;35.50;38.80;;;;;;5060816;28;20033;-82
2022/06/18 12:14:26;;;;;;;0.88;0.75;;;35.40;37.20;;;;;;5056465;28;20033;-82
2022/06/18 12:17:11;;;;;;;2.63;1.25;;;35.40;38.70;;;;;;5052127;28;20048;-83
2022/06/18 12:19:54;;;;;;;5.63;1.63;;;35.50;40.80;;;;;;5059615;28;20029;-83
2022/06/18 12:23:02;;;;;;;2.13;0.82;;;35.50;38.80;;;;;;5048731;28;20021;-83
2022/06/18 12:25:38;;;;;;;0.15;0.15;;;35.40;37.70;;;;;;5053050;28;20068;-83
2022/06/18 12:28:17;;;;;;;15.43;2.00;;;35.30;38.30;;;;;;5048553;28;20032;-82
2022/06/18 12:30:52;;;;;;;3.92;1.60;;;35.30;39.00;;;;;;5050406;28;20032;-82
2022/06/18 12:33:29;;;;;;;2.33;1.15;;;35.40;37.90;;;;;;5059537;28;20028;-83
2022/06/18 12:36:04;;;;;;;2.13;1.13;;;35.40;38.30;;;;;;5049961;28;20112;-82
2022/06/18 12:38:35;;;;;;;4.20;0.50;;;35.40;38.20;;;;;;5050347;28;20021;-83
2022/06/18 12:41:16;;;;;;;3.13;0.35;;;35.30;39.80;;;;;;5050208;28;20284;-82
2022/06/18 12:43:47;;;;;;;1.10;0.93;;;35.10;37.90;;;;;;5053361;28;20045;-82
2022/06/18 12:46:33;;;;;;;0.90;0.70;;;35.20;37.90;;;;;;5044552;28;20481;-83
2022/06/18 12:49:05;;;;;;;0.47;0.47;;;35.30;40.40;;;;;;5059057;28;20025;-83
2022/06/18 12:51:52;;;;;;;3.72;1.55;;;35.30;39.00;;;;;;5059658;28;20058;-82
2022/06/18 12:54:32;;;;;;;0.38;0.30;;;35.20;37.60;;;;;;5059397;28;20071;-82
2022/06/18 12:57:17;;;;;;;7.47;0.80;;;35.10;37.60;;;;;;5062513;28;20086;-82
2022/06/18 13:00:03;;;;;;;1.13;0.93;;;35.30;38.80;;;;;;5060654;28;20501;-83
2022/06/18 13:03:06;;;;;;;0.20;0.20;;;35.20;39.60;;;;;;5059413;28;20075;-82
2022/06/18 13:05:51;;;;;;;0.30;0.30;;;35.20;39.60;;;;;;5056766;28;20040;-83
2022/06/18 13:08:35;;;;;;;0.50;0.50;;;35.30;38.80;;;;;;5057150;28;20029;-82
2022/06/18 13:11:35;;;;;;;1.88;0.90;;;35.30;39.80;;;;;;5059656;28;20032;-83
2022/06/18 13:14:06;;;;;;;1.20;1.10;;;35.20;41.30;;;;;;4991801;28;20041;-81
2022/06/18 13:16:51;;;;;;;1.73;0.55;;;35.00;39.70;;;;;;4992433;28;20030;-83
2022/06/18 13:19:20;;;;;;;0.28;0.17;;;35.00;40.40;;;;;;4992134;28;20038;-82
2022/06/18 13:21:47;;;;;;;8.52;1.25;;;35.00;38.20;;;;;;4993847;28;20030;-82
2022/06/18 13:30:01;;;;;;;1.10;0.82;;;35.00;39.20;;;;;;4992774;28;20052;-83